sensor_id;sensor_type;location;lat;lon;timestamp;P1;durP1;ratioP1;P2;durP2;ratioP2
78224;SDS011;67498;53.650;10.090;2023-08-24T00:00:09;8.23;;;1.40;;
78224;SDS011;67498;53.650;10.090;2023-08-24T00:02:35;9.02;;;1.30;;
78224;SDS011;67498;53.650;10.090;2023-08-24T00:05:00;4.90;;;1.07;;
78224;SDS011;67498;53.650;10.090;2023-08-24T00:07:25;4.17;;;1.20;;
78224;SDS011;67498;53.650;10.090;2023-08-24T00:09:52;3.75;;;1.10;;
78224;SDS011;67498;53.650;10.090;2023-08-24T00:12:18;5.32;;;1.33;;
78224;SDS011;67498;53.650;10.090;2023-08-24T00:14:43;6.77;;;1.17;;
78224;SDS011;67498;53.650;10.090;2023-08-24T00:17:08;5.57;;;1.00;;
78224;SDS011;67498;53.650;10.090;2023-08-24T00:19:34;7.47;;;1.33;;
78224;SDS011;67498;53.650;10.090;2023-08-24T00:21:59;3.20;;;0.90;;
78224;SDS011;67498;53.650;10.090;2023-08-24T00:24:24;7.10;;;1.13;;
78224;SDS011;67498;53.650;10.090;2023-08-24T00:26:49;4.78;;;1.30;;
78224;SDS011;67498;53.650;10.090;2023-08-24T00:29:15;6.40;;;1.43;;
78224;SDS011;67498;53.650;10.090;2023-08-24T00:31:40;3.90;;;1.10;;
78224;SDS011;67498;53.650;10.090;2023-08-24T00:34:06;5.17;;;1.10;;
78224;SDS011;67498;53.650;10.090;2023-08-24T00:36:31;3.92;;;1.10;;
78224;SDS011;67498;53.650;10.090;2023-08-24T00:38:56;6.00;;;1.07;;
78224;SDS011;67498;53.650;10.090;2023-08-24T00:41:22;7.93;;;1.10;;
78224;SDS011;67498;53.650;10.090;2023-08-24T00:43:47;8.00;;;1.50;;
78224;SDS011;67498;53.650;10.090;2023-08-24T00:46:15;7.55;;;1.15;;
78224;SDS011;67498;53.650;10.090;2023-08-24T00:48:40;6.00;;;0.90;;
78224;SDS011;67498;53.650;10.090;2023-08-24T00:51:05;3.33;;;0.90;;
78224;SDS011;67498;53.650;10.090;2023-08-24T00:53:31;5.20;;;1.13;;
78224;SDS011;67498;53.650;10.090;2023-08-24T00:55:56;5.32;;;1.10;;
78224;SDS011;67498;53.650;10.090;2023-08-24T00:58:22;4.40;;;1.20;;
78224;SDS011;67498;53.650;10.090;2023-08-24T01:00:49;3.70;;;1.00;;
78224;SDS011;67498;53.650;10.090;2023-08-24T01:03:16;4.18;;;1.05;;
78224;SDS011;67498;53.650;10.090;2023-08-24T01:05:41;7.13;;;1.30;;
78224;SDS011;67498;53.650;10.090;2023-08-24T01:08:07;3.95;;;1.00;;
78224;SDS011;67498;53.650;10.090;2023-08-24T01:10:37;6.53;;;1.20;;
78224;SDS011;67498;53.650;10.090;2023-08-24T01:13:07;3.85;;;0.95;;
78224;SDS011;67498;53.650;10.090;2023-08-24T01:18:11;3.70;;;1.07;;
78224;SDS011;67498;53.650;10.090;2023-08-24T01:20:40;3.53;;;0.90;;
78224;SDS011;67498;53.650;10.090;2023-08-24T01:23:09;3.75;;;1.02;;
78224;SDS011;67498;53.650;10.090;2023-08-24T01:25:49;6.35;;;1.10;;
78224;SDS011;67498;53.650;10.090;2023-08-24T01:28:18;4.10;;;0.90;;
78224;SDS011;67498;53.650;10.090;2023-08-24T01:30:45;7.23;;;1.23;;
78224;SDS011;67498;53.650;10.090;2023-08-24T01:33:11;12.88;;;1.60;;
78224;SDS011;67498;53.650;10.090;2023-08-24T01:35:37;4.50;;;1.07;;
78224;SDS011;67498;53.650;10.090;2023-08-24T01:38:03;4.85;;;1.17;;
78224;SDS011;67498;53.650;10.090;2023-08-24T01:40:36;5.07;;;0.98;;
78224;SDS011;67498;53.650;10.090;2023-08-24T01:43:09;6.10;;;0.82;;
78224;SDS011;67498;53.650;10.090;2023-08-24T01:45:35;6.07;;;1.30;;
78224;SDS011;67498;53.650;10.090;2023-08-24T01:48:02;8.30;;;1.17;;
78224;SDS011;67498;53.650;10.090;2023-08-24T01:50:29;4.35;;;1.25;;
78224;SDS011;67498;53.650;10.090;2023-08-24T01:52:55;6.07;;;1.38;;
78224;SDS011;67498;53.650;10.090;2023-08-24T01:55:20;3.50;;;1.10;;
78224;SDS011;67498;53.650;10.090;2023-08-24T01:57:46;4.80;;;1.03;;
78224;SDS011;67498;53.650;10.090;2023-08-24T02:00:13;3.70;;;1.10;;
78224;SDS011;67498;53.650;10.090;2023-08-24T02:02:38;6.17;;;1.17;;
78224;SDS011;67498;53.650;10.090;2023-08-24T02:05:03;7.83;;;1.57;;
78224;SDS011;67498;53.650;10.090;2023-08-24T02:07:29;5.93;;;1.30;;
78224;SDS011;67498;53.650;10.090;2023-08-24T02:09:54;4.33;;;1.50;;
78224;SDS011;67498;53.650;10.090;2023-08-24T02:12:20;4.27;;;1.13;;
78224;SDS011;67498;53.650;10.090;2023-08-24T02:14:45;7.30;;;1.40;;
78224;SDS011;67498;53.650;10.090;2023-08-24T02:17:10;3.73;;;1.10;;
78224;SDS011;67498;53.650;10.090;2023-08-24T02:19:36;3.70;;;0.93;;
78224;SDS011;67498;53.650;10.090;2023-08-24T02:22:01;4.90;;;1.07;;
78224;SDS011;67498;53.650;10.090;2023-08-24T02:24:26;5.07;;;1.10;;
78224;SDS011;67498;53.650;10.090;2023-08-24T02:26:51;4.23;;;1.20;;
78224;SDS011;67498;53.650;10.090;2023-08-24T02:29:17;4.35;;;1.27;;
78224;SDS011;67498;53.650;10.090;2023-08-24T02:31:42;5.97;;;1.23;;
78224;SDS011;67498;53.650;10.090;2023-08-24T02:34:08;5.33;;;1.23;;
78224;SDS011;67498;53.650;10.090;2023-08-24T02:36:33;4.10;;;1.17;;
78224;SDS011;67498;53.650;10.090;2023-08-24T02:38:59;5.17;;;0.90;;
78224;SDS011;67498;53.650;10.090;2023-08-24T02:41:25;4.15;;;1.05;;
78224;SDS011;67498;53.650;10.090;2023-08-24T02:43:51;4.65;;;1.00;;
78224;SDS011;67498;53.650;10.090;2023-08-24T02:46:16;3.90;;;1.20;;
78224;SDS011;67498;53.650;10.090;2023-08-24T02:48:43;4.88;;;1.10;;
78224;SDS011;67498;53.650;10.090;2023-08-24T02:51:09;3.80;;;1.13;;
78224;SDS011;67498;53.650;10.090;2023-08-24T02:53:35;4.63;;;1.30;;
78224;SDS011;67498;53.650;10.090;2023-08-24T02:56:00;4.40;;;1.40;;
78224;SDS011;67498;53.650;10.090;2023-08-24T02:58:26;4.10;;;1.30;;
78224;SDS011;67498;53.650;10.090;2023-08-24T03:00:52;4.37;;;1.47;;
78224;SDS011;67498;53.650;10.090;2023-08-24T03:03:17;6.40;;;1.30;;
78224;SDS011;67498;53.650;10.090;2023-08-24T03:05:59;3.92;;;1.20;;
78224;SDS011;67498;53.650;10.090;2023-08-24T03:08:25;6.78;;;1.15;;
78224;SDS011;67498;53.650;10.090;2023-08-24T03:10:51;5.60;;;1.20;;
78224;SDS011;67498;53.650;10.090;2023-08-24T03:13:17;5.03;;;1.20;;
78224;SDS011;67498;53.650;10.090;2023-08-24T03:15:42;6.45;;;1.40;;
78224;SDS011;67498;53.650;10.090;2023-08-24T03:18:08;4.83;;;1.20;;
78224;SDS011;67498;53.650;10.090;2023-08-24T03:20:34;5.95;;;1.80;;
78224;SDS011;67498;53.650;10.090;2023-08-24T03:22:59;5.13;;;1.57;;
78224;SDS011;67498;53.650;10.090;2023-08-24T03:25:25;6.93;;;1.77;;
78224;SDS011;67498;53.650;10.090;2023-08-24T03:27:51;8.90;;;1.77;;
78224;SDS011;67498;53.650;10.090;2023-08-24T03:30:16;4.63;;;1.53;;
78224;SDS011;67498;53.650;10.090;2023-08-24T03:32:41;4.97;;;1.30;;
78224;SDS011;67498;53.650;10.090;2023-08-24T03:35:07;8.33;;;1.57;;
78224;SDS011;67498;53.650;10.090;2023-08-24T03:37:32;5.50;;;1.80;;
78224;SDS011;67498;53.650;10.090;2023-08-24T03:39:58;8.32;;;1.90;;
78224;SDS011;67498;53.650;10.090;2023-08-24T03:42:23;4.77;;;1.67;;
78224;SDS011;67498;53.650;10.090;2023-08-24T03:44:48;6.90;;;1.70;;
78224;SDS011;67498;53.650;10.090;2023-08-24T03:47:14;8.10;;;1.70;;
78224;SDS011;67498;53.650;10.090;2023-08-24T03:49:41;5.93;;;1.53;;
78224;SDS011;67498;53.650;10.090;2023-08-24T03:52:07;6.25;;;2.03;;
78224;SDS011;67498;53.650;10.090;2023-08-24T03:54:35;7.17;;;1.90;;
78224;SDS011;67498;53.650;10.090;2023-08-24T03:57:08;6.32;;;1.90;;
78224;SDS011;67498;53.650;10.090;2023-08-24T03:59:33;7.60;;;1.40;;
78224;SDS011;67498;53.650;10.090;2023-08-24T04:01:59;5.60;;;1.73;;
78224;SDS011;67498;53.650;10.090;2023-08-24T04:04:27;7.53;;;1.90;;
78224;SDS011;67498;53.650;10.090;2023-08-24T04:06:52;5.72;;;1.63;;
78224;SDS011;67498;53.650;10.090;2023-08-24T04:09:18;10.73;;;2.30;;
78224;SDS011;67498;53.650;10.090;2023-08-24T04:11:43;6.50;;;2.10;;
78224;SDS011;67498;53.650;10.090;2023-08-24T04:14:08;7.90;;;2.03;;
78224;SDS011;67498;53.650;10.090;2023-08-24T04:16:34;8.87;;;2.07;;
78224;SDS011;67498;53.650;10.090;2023-08-24T04:18:59;7.17;;;1.77;;
78224;SDS011;67498;53.650;10.090;2023-08-24T04:21:24;4.10;;;1.60;;
78224;SDS011;67498;53.650;10.090;2023-08-24T04:23:50;5.87;;;2.40;;
78224;SDS011;67498;53.650;10.090;2023-08-24T04:26:15;5.93;;;1.90;;
78224;SDS011;67498;53.650;10.090;2023-08-24T04:28:40;8.67;;;2.30;;
78224;SDS011;67498;53.650;10.090;2023-08-24T04:31:05;4.18;;;1.60;;
78224;SDS011;67498;53.650;10.090;2023-08-24T04:33:31;5.37;;;1.90;;
78224;SDS011;67498;53.650;10.090;2023-08-24T04:35:56;6.03;;;1.70;;
78224;SDS011;67498;53.650;10.090;2023-08-24T04:38:23;6.63;;;1.95;;
78224;SDS011;67498;53.650;10.090;2023-08-24T04:40:53;9.17;;;2.10;;
78224;SDS011;67498;53.650;10.090;2023-08-24T04:43:19;5.10;;;1.83;;
78224;SDS011;67498;53.650;10.090;2023-08-24T04:45:49;7.13;;;1.45;;
78224;SDS011;67498;53.650;10.090;2023-08-24T04:48:19;7.87;;;2.30;;
78224;SDS011;67498;53.650;10.090;2023-08-24T04:50:48;7.32;;;1.95;;
78224;SDS011;67498;53.650;10.090;2023-08-24T04:53:15;5.55;;;1.88;;
78224;SDS011;67498;53.650;10.090;2023-08-24T04:55:42;5.72;;;2.00;;
78224;SDS011;67498;53.650;10.090;2023-08-24T04:58:08;4.90;;;1.63;;
78224;SDS011;67498;53.650;10.090;2023-08-24T05:00:34;4.93;;;1.85;;
78224;SDS011;67498;53.650;10.090;2023-08-24T05:03:03;4.93;;;1.75;;
78224;SDS011;67498;53.650;10.090;2023-08-24T05:05:30;5.87;;;1.90;;
78224;SDS011;67498;53.650;10.090;2023-08-24T05:07:56;8.02;;;2.28;;
78224;SDS011;67498;53.650;10.090;2023-08-24T05:10:22;5.05;;;1.58;;
78224;SDS011;67498;53.650;10.090;2023-08-24T05:12:48;5.60;;;2.03;;
78224;SDS011;67498;53.650;10.090;2023-08-24T05:15:13;9.63;;;2.10;;
78224;SDS011;67498;53.650;10.090;2023-08-24T05:17:39;5.97;;;1.77;;
78224;SDS011;67498;53.650;10.090;2023-08-24T05:20:07;4.75;;;1.52;;
78224;SDS011;67498;53.650;10.090;2023-08-24T05:22:33;8.17;;;1.77;;
78224;SDS011;67498;53.650;10.090;2023-08-24T05:24:59;5.75;;;1.70;;
78224;SDS011;67498;53.650;10.090;2023-08-24T05:27:24;6.83;;;1.97;;
78224;SDS011;67498;53.650;10.090;2023-08-24T05:29:49;4.63;;;1.63;;
78224;SDS011;67498;53.650;10.090;2023-08-24T05:32:14;5.13;;;1.70;;
78224;SDS011;67498;53.650;10.090;2023-08-24T05:34:40;6.33;;;1.67;;
78224;SDS011;67498;53.650;10.090;2023-08-24T05:37:05;5.50;;;1.53;;
78224;SDS011;67498;53.650;10.090;2023-08-24T05:39:30;6.83;;;1.97;;
78224;SDS011;67498;53.650;10.090;2023-08-24T05:41:55;4.60;;;1.40;;
78224;SDS011;67498;53.650;10.090;2023-08-24T05:44:21;7.17;;;1.83;;
78224;SDS011;67498;53.650;10.090;2023-08-24T05:46:46;6.13;;;1.83;;
78224;SDS011;67498;53.650;10.090;2023-08-24T05:49:12;7.00;;;1.90;;
78224;SDS011;67498;53.650;10.090;2023-08-24T05:51:37;8.07;;;2.07;;
78224;SDS011;67498;53.650;10.090;2023-08-24T05:54:02;6.57;;;2.03;;
78224;SDS011;67498;53.650;10.090;2023-08-24T05:56:28;5.80;;;2.07;;
78224;SDS011;67498;53.650;10.090;2023-08-24T05:58:54;5.87;;;2.10;;
78224;SDS011;67498;53.650;10.090;2023-08-24T06:01:20;5.97;;;2.35;;
78224;SDS011;67498;53.650;10.090;2023-08-24T06:03:45;5.80;;;2.03;;
78224;SDS011;67498;53.650;10.090;2023-08-24T06:06:10;6.57;;;2.10;;
78224;SDS011;67498;53.650;10.090;2023-08-24T06:08:36;9.70;;;1.87;;
78224;SDS011;67498;53.650;10.090;2023-08-24T06:11:01;5.93;;;1.87;;
78224;SDS011;67498;53.650;10.090;2023-08-24T06:13:26;7.35;;;1.60;;
78224;SDS011;67498;53.650;10.090;2023-08-24T06:15:52;7.10;;;1.70;;
78224;SDS011;67498;53.650;10.090;2023-08-24T06:18:19;5.43;;;1.50;;
78224;SDS011;67498;53.650;10.090;2023-08-24T06:20:44;4.20;;;1.00;;
78224;SDS011;67498;53.650;10.090;2023-08-24T06:23:11;10.93;;;1.75;;
78224;SDS011;67498;53.650;10.090;2023-08-24T06:25:38;4.88;;;1.00;;
78224;SDS011;67498;53.650;10.090;2023-08-24T06:28:03;3.90;;;1.13;;
78224;SDS011;67498;53.650;10.090;2023-08-24T06:30:29;4.22;;;0.80;;
78224;SDS011;67498;53.650;10.090;2023-08-24T06:32:57;3.05;;;0.80;;
78224;SDS011;67498;53.650;10.090;2023-08-24T06:35:23;6.00;;;1.00;;
78224;SDS011;67498;53.650;10.090;2023-08-24T06:37:49;4.37;;;0.93;;
78224;SDS011;67498;53.650;10.090;2023-08-24T06:40:14;6.77;;;1.17;;
78224;SDS011;67498;53.650;10.090;2023-08-24T06:42:39;3.20;;;0.80;;
78224;SDS011;67498;53.650;10.090;2023-08-24T06:45:05;2.43;;;0.70;;
78224;SDS011;67498;53.650;10.090;2023-08-24T06:47:31;2.90;;;0.50;;
78224;SDS011;67498;53.650;10.090;2023-08-24T06:49:57;4.70;;;0.87;;
78224;SDS011;67498;53.650;10.090;2023-08-24T06:52:22;2.57;;;0.63;;
78224;SDS011;67498;53.650;10.090;2023-08-24T06:54:47;3.47;;;1.23;;
78224;SDS011;67498;53.650;10.090;2023-08-24T06:57:18;3.03;;;0.60;;
78224;SDS011;67498;53.650;10.090;2023-08-24T06:59:43;2.23;;;0.50;;
78224;SDS011;67498;53.650;10.090;2023-08-24T07:02:08;4.30;;;0.93;;
78224;SDS011;67498;53.650;10.090;2023-08-24T07:04:34;2.30;;;0.50;;
78224;SDS011;67498;53.650;10.090;2023-08-24T07:06:59;3.97;;;0.70;;
78224;SDS011;67498;53.650;10.090;2023-08-24T07:09:24;2.63;;;0.60;;
78224;SDS011;67498;53.650;10.090;2023-08-24T07:11:50;3.10;;;0.77;;
78224;SDS011;67498;53.650;10.090;2023-08-24T07:14:15;3.40;;;0.50;;
78224;SDS011;67498;53.650;10.090;2023-08-24T07:16:40;2.97;;;0.63;;
78224;SDS011;67498;53.650;10.090;2023-08-24T07:19:05;2.40;;;0.50;;
78224;SDS011;67498;53.650;10.090;2023-08-24T07:21:31;2.80;;;0.50;;
78224;SDS011;67498;53.650;10.090;2023-08-24T07:23:56;2.50;;;0.50;;
78224;SDS011;67498;53.650;10.090;2023-08-24T07:26:22;2.03;;;0.40;;
78224;SDS011;67498;53.650;10.090;2023-08-24T07:28:47;2.58;;;0.50;;
78224;SDS011;67498;53.650;10.090;2023-08-24T07:31:12;5.50;;;0.60;;
78224;SDS011;67498;53.650;10.090;2023-08-24T07:33:38;4.43;;;0.63;;
78224;SDS011;67498;53.650;10.090;2023-08-24T07:36:08;2.25;;;0.47;;
78224;SDS011;67498;53.650;10.090;2023-08-24T07:38:34;2.03;;;0.40;;
78224;SDS011;67498;53.650;10.090;2023-08-24T07:40:59;1.87;;;0.40;;
78224;SDS011;67498;53.650;10.090;2023-08-24T07:43:24;2.53;;;0.63;;
78224;SDS011;67498;53.650;10.090;2023-08-24T07:45:50;3.03;;;0.40;;
78224;SDS011;67498;53.650;10.090;2023-08-24T07:48:15;2.63;;;0.73;;
78224;SDS011;67498;53.650;10.090;2023-08-24T07:50:40;3.53;;;0.80;;
78224;SDS011;67498;53.650;10.090;2023-08-24T07:53:06;3.25;;;0.50;;
78224;SDS011;67498;53.650;10.090;2023-08-24T07:55:31;4.17;;;0.67;;
78224;SDS011;67498;53.650;10.090;2023-08-24T07:57:56;8.57;;;0.60;;
78224;SDS011;67498;53.650;10.090;2023-08-24T08:00:22;2.93;;;0.80;;
78224;SDS011;67498;53.650;10.090;2023-08-24T08:02:50;4.57;;;0.60;;
78224;SDS011;67498;53.650;10.090;2023-08-24T08:05:16;3.70;;;0.50;;
78224;SDS011;67498;53.650;10.090;2023-08-24T08:07:42;2.65;;;0.50;;
78224;SDS011;67498;53.650;10.090;2023-08-24T08:10:08;2.10;;;0.40;;
78224;SDS011;67498;53.650;10.090;2023-08-24T08:12:34;5.20;;;0.70;;
78224;SDS011;67498;53.650;10.090;2023-08-24T08:14:59;3.63;;;0.40;;
78224;SDS011;67498;53.650;10.090;2023-08-24T08:17:25;2.58;;;0.50;;
78224;SDS011;67498;53.650;10.090;2023-08-24T08:19:56;2.53;;;0.50;;
78224;SDS011;67498;53.650;10.090;2023-08-24T08:22:22;3.17;;;0.53;;
78224;SDS011;67498;53.650;10.090;2023-08-24T08:24:47;2.28;;;0.40;;
78224;SDS011;67498;53.650;10.090;2023-08-24T08:27:12;2.50;;;0.50;;
78224;SDS011;67498;53.650;10.090;2023-08-24T08:29:38;4.77;;;0.50;;
78224;SDS011;67498;53.650;10.090;2023-08-24T08:32:03;3.70;;;0.70;;
78224;SDS011;67498;53.650;10.090;2023-08-24T08:34:30;2.60;;;0.52;;
78224;SDS011;67498;53.650;10.090;2023-08-24T08:36:56;3.90;;;0.60;;
78224;SDS011;67498;53.650;10.090;2023-08-24T08:39:22;3.75;;;0.57;;
78224;SDS011;67498;53.650;10.090;2023-08-24T08:41:47;3.20;;;0.50;;
78224;SDS011;67498;53.650;10.090;2023-08-24T08:44:14;2.22;;;0.50;;
78224;SDS011;67498;53.650;10.090;2023-08-24T08:46:43;2.97;;;0.50;;
78224;SDS011;67498;53.650;10.090;2023-08-24T08:49:08;3.13;;;0.70;;
78224;SDS011;67498;53.650;10.090;2023-08-24T08:51:38;3.38;;;0.80;;
78224;SDS011;67498;53.650;10.090;2023-08-24T08:54:05;3.40;;;0.50;;
78224;SDS011;67498;53.650;10.090;2023-08-24T08:56:31;3.05;;;0.60;;
78224;SDS011;67498;53.650;10.090;2023-08-24T08:58:57;2.80;;;0.70;;
78224;SDS011;67498;53.650;10.090;2023-08-24T09:01:24;4.78;;;0.50;;
78224;SDS011;67498;53.650;10.090;2023-08-24T09:03:50;3.30;;;0.60;;
78224;SDS011;67498;53.650;10.090;2023-08-24T09:06:16;2.90;;;0.80;;
78224;SDS011;67498;53.650;10.090;2023-08-24T09:08:41;3.80;;;0.73;;
78224;SDS011;67498;53.650;10.090;2023-08-24T09:11:08;2.78;;;0.70;;
78224;SDS011;67498;53.650;10.090;2023-08-24T09:13:34;3.47;;;0.60;;
78224;SDS011;67498;53.650;10.090;2023-08-24T09:16:02;2.97;;;0.70;;
78224;SDS011;67498;53.650;10.090;2023-08-24T09:18:37;3.60;;;0.50;;
78224;SDS011;67498;53.650;10.090;2023-08-24T09:21:09;6.32;;;0.93;;
78224;SDS011;67498;53.650;10.090;2023-08-24T09:23:38;5.40;;;0.80;;
78224;SDS011;67498;53.650;10.090;2023-08-24T09:26:11;3.42;;;1.00;;
78224;SDS011;67498;53.650;10.090;2023-08-24T09:28:37;3.73;;;0.70;;
78224;SDS011;67498;53.650;10.090;2023-08-24T09:31:04;3.30;;;0.90;;
78224;SDS011;67498;53.650;10.090;2023-08-24T09:33:30;2.87;;;0.63;;
78224;SDS011;67498;53.650;10.090;2023-08-24T09:35:55;5.68;;;1.02;;
78224;SDS011;67498;53.650;10.090;2023-08-24T09:38:26;6.40;;;1.00;;
78224;SDS011;67498;53.650;10.090;2023-08-24T09:40:53;3.55;;;0.82;;
78224;SDS011;67498;53.650;10.090;2023-08-24T09:43:19;3.70;;;1.00;;
78224;SDS011;67498;53.650;10.090;2023-08-24T09:45:56;3.67;;;0.98;;
78224;SDS011;67498;53.650;10.090;2023-08-24T09:48:22;4.03;;;1.10;;
78224;SDS011;67498;53.650;10.090;2023-08-24T09:50:51;4.43;;;0.87;;
78224;SDS011;67498;53.650;10.090;2023-08-24T09:53:17;7.38;;;1.30;;
78224;SDS011;67498;53.650;10.090;2023-08-24T09:55:44;2.90;;;0.70;;
78224;SDS011;67498;53.650;10.090;2023-08-24T09:58:24;4.90;;;1.20;;
78224;SDS011;67498;53.650;10.090;2023-08-24T10:00:50;5.93;;;1.20;;
78224;SDS011;67498;53.650;10.090;2023-08-24T10:03:19;4.33;;;1.30;;
78224;SDS011;67498;53.650;10.090;2023-08-24T10:05:47;5.93;;;1.17;;
78224;SDS011;67498;53.650;10.090;2023-08-24T10:08:15;3.60;;;1.08;;
78224;SDS011;67498;53.650;10.090;2023-08-24T10:10:45;5.00;;;1.00;;
78224;SDS011;67498;53.650;10.090;2023-08-24T10:13:17;6.57;;;1.13;;
78224;SDS011;67498;53.650;10.090;2023-08-24T10:15:46;3.87;;;1.20;;
78224;SDS011;67498;53.650;10.090;2023-08-24T10:18:14;4.45;;;1.23;;
78224;SDS011;67498;53.650;10.090;2023-08-24T10:20:40;5.07;;;1.10;;
78224;SDS011;67498;53.650;10.090;2023-08-24T10:23:07;6.20;;;1.50;;
78224;SDS011;67498;53.650;10.090;2023-08-24T10:25:33;8.32;;;1.30;;
78224;SDS011;67498;53.650;10.090;2023-08-24T10:27:58;5.33;;;1.40;;
78224;SDS011;67498;53.650;10.090;2023-08-24T10:30:25;6.00;;;1.30;;
78224;SDS011;67498;53.650;10.090;2023-08-24T10:32:54;5.72;;;1.23;;
78224;SDS011;67498;53.650;10.090;2023-08-24T10:35:20;4.72;;;1.40;;
78224;SDS011;67498;53.650;10.090;2023-08-24T10:37:46;5.75;;;1.25;;
78224;SDS011;67498;53.650;10.090;2023-08-24T10:40:12;4.50;;;1.40;;
78224;SDS011;67498;53.650;10.090;2023-08-24T10:42:44;6.40;;;1.20;;
78224;SDS011;67498;53.650;10.090;2023-08-24T10:45:12;4.45;;;1.08;;
78224;SDS011;67498;53.650;10.090;2023-08-24T10:47:45;4.20;;;1.33;;
78224;SDS011;67498;53.650;10.090;2023-08-24T10:50:11;6.20;;;1.30;;
78224;SDS011;67498;53.650;10.090;2023-08-24T10:52:37;3.97;;;1.33;;
78224;SDS011;67498;53.650;10.090;2023-08-24T10:55:04;6.07;;;1.38;;
78224;SDS011;67498;53.650;10.090;2023-08-24T10:57:47;4.88;;;1.58;;
78224;SDS011;67498;53.650;10.090;2023-08-24T11:00:21;5.17;;;1.23;;
78224;SDS011;67498;53.650;10.090;2023-08-24T11:02:48;4.65;;;1.13;;
78224;SDS011;67498;53.650;10.090;2023-08-24T11:05:24;5.35;;;1.20;;
78224;SDS011;67498;53.650;10.090;2023-08-24T11:10:25;4.78;;;1.20;;
78224;SDS011;67498;53.650;10.090;2023-08-24T11:15:31;9.13;;;1.17;;
78224;SDS011;67498;53.650;10.090;2023-08-24T11:20:44;8.43;;;1.70;;
78224;SDS011;67498;53.650;10.090;2023-08-24T11:23:10;5.22;;;1.30;;
78224;SDS011;67498;53.650;10.090;2023-08-24T11:25:36;4.57;;;1.50;;
78224;SDS011;67498;53.650;10.090;2023-08-24T11:28:02;5.20;;;1.60;;
78224;SDS011;67498;53.650;10.090;2023-08-24T11:30:28;4.17;;;1.30;;
78224;SDS011;67498;53.650;10.090;2023-08-24T11:32:54;5.35;;;1.60;;
78224;SDS011;67498;53.650;10.090;2023-08-24T11:35:19;4.80;;;1.60;;
78224;SDS011;67498;53.650;10.090;2023-08-24T11:37:54;4.80;;;1.38;;
78224;SDS011;67498;53.650;10.090;2023-08-24T11:40:20;5.55;;;1.50;;
78224;SDS011;67498;53.650;10.090;2023-08-24T11:42:46;4.37;;;1.30;;
78224;SDS011;67498;53.650;10.090;2023-08-24T11:45:12;5.05;;;1.35;;
78224;SDS011;67498;53.650;10.090;2023-08-24T11:47:38;3.80;;;1.30;;
78224;SDS011;67498;53.650;10.090;2023-08-24T11:50:03;4.20;;;1.20;;
78224;SDS011;67498;53.650;10.090;2023-08-24T11:52:29;8.00;;;1.50;;
78224;SDS011;67498;53.650;10.090;2023-08-24T11:54:58;4.85;;;1.33;;
78224;SDS011;67498;53.650;10.090;2023-08-24T11:57:24;6.50;;;1.92;;
78224;SDS011;67498;53.650;10.090;2023-08-24T11:59:51;6.00;;;1.50;;
78224;SDS011;67498;53.650;10.090;2023-08-24T12:02:16;4.63;;;1.50;;
78224;SDS011;67498;53.650;10.090;2023-08-24T12:04:42;4.68;;;1.70;;
78224;SDS011;67498;53.650;10.090;2023-08-24T12:07:09;3.67;;;1.20;;
78224;SDS011;67498;53.650;10.090;2023-08-24T12:09:41;4.57;;;1.45;;
78224;SDS011;67498;53.650;10.090;2023-08-24T12:12:13;3.37;;;1.17;;
78224;SDS011;67498;53.650;10.090;2023-08-24T12:14:42;4.50;;;1.33;;
78224;SDS011;67498;53.650;10.090;2023-08-24T12:17:08;7.43;;;1.30;;
78224;SDS011;67498;53.650;10.090;2023-08-24T12:19:34;4.63;;;1.20;;
78224;SDS011;67498;53.650;10.090;2023-08-24T12:21:59;6.53;;;1.33;;
78224;SDS011;67498;53.650;10.090;2023-08-24T12:24:25;5.10;;;1.13;;
78224;SDS011;67498;53.650;10.090;2023-08-24T12:26:56;6.27;;;1.37;;
78224;SDS011;67498;53.650;10.090;2023-08-24T12:29:27;6.18;;;1.25;;
78224;SDS011;67498;53.650;10.090;2023-08-24T12:31:56;6.17;;;1.23;;
78224;SDS011;67498;53.650;10.090;2023-08-24T12:34:22;5.03;;;1.40;;
78224;SDS011;67498;53.650;10.090;2023-08-24T12:36:48;4.35;;;1.30;;
78224;SDS011;67498;53.650;10.090;2023-08-24T12:39:13;4.63;;;1.20;;
78224;SDS011;67498;53.650;10.090;2023-08-24T12:41:40;5.03;;;1.38;;
78224;SDS011;67498;53.650;10.090;2023-08-24T12:44:05;4.17;;;1.20;;
78224;SDS011;67498;53.650;10.090;2023-08-24T12:46:31;4.67;;;1.30;;
78224;SDS011;67498;53.650;10.090;2023-08-24T12:48:57;3.70;;;1.10;;
78224;SDS011;67498;53.650;10.090;2023-08-24T12:51:22;3.23;;;1.17;;
78224;SDS011;67498;53.650;10.090;2023-08-24T12:53:49;6.25;;;1.20;;
78224;SDS011;67498;53.650;10.090;2023-08-24T12:56:14;5.10;;;1.00;;
78224;SDS011;67498;53.650;10.090;2023-08-24T12:58:40;4.70;;;1.40;;
78224;SDS011;67498;53.650;10.090;2023-08-24T13:01:05;5.43;;;1.47;;
78224;SDS011;67498;53.650;10.090;2023-08-24T13:03:32;4.63;;;1.20;;
78224;SDS011;67498;53.650;10.090;2023-08-24T13:05:57;4.18;;;1.20;;
78224;SDS011;67498;53.650;10.090;2023-08-24T13:08:22;4.87;;;1.40;;
78224;SDS011;67498;53.650;10.090;2023-08-24T13:10:48;5.53;;;1.27;;
78224;SDS011;67498;53.650;10.090;2023-08-24T13:13:13;4.87;;;1.43;;
78224;SDS011;67498;53.650;10.090;2023-08-24T13:15:38;5.17;;;1.30;;
78224;SDS011;67498;53.650;10.090;2023-08-24T13:18:03;3.53;;;1.20;;
78224;SDS011;67498;53.650;10.090;2023-08-24T13:20:29;3.90;;;1.27;;
78224;SDS011;67498;53.650;10.090;2023-08-24T13:22:54;4.23;;;1.50;;
78224;SDS011;67498;53.650;10.090;2023-08-24T13:25:19;6.63;;;1.40;;
78224;SDS011;67498;53.650;10.090;2023-08-24T13:27:44;5.83;;;1.30;;
78224;SDS011;67498;53.650;10.090;2023-08-24T13:30:10;7.63;;;1.50;;
78224;SDS011;67498;53.650;10.090;2023-08-24T13:32:35;3.65;;;1.10;;
78224;SDS011;67498;53.650;10.090;2023-08-24T13:35:01;5.50;;;1.53;;
78224;SDS011;67498;53.650;10.090;2023-08-24T13:37:27;4.25;;;1.13;;
78224;SDS011;67498;53.650;10.090;2023-08-24T13:39:53;5.07;;;1.47;;
78224;SDS011;67498;53.650;10.090;2023-08-24T13:42:18;4.50;;;1.30;;
78224;SDS011;67498;53.650;10.090;2023-08-24T13:44:44;6.40;;;1.50;;
78224;SDS011;67498;53.650;10.090;2023-08-24T13:47:10;5.20;;;1.65;;
78224;SDS011;67498;53.650;10.090;2023-08-24T13:49:35;8.23;;;1.40;;
78224;SDS011;67498;53.650;10.090;2023-08-24T13:52:01;5.13;;;1.23;;
78224;SDS011;67498;53.650;10.090;2023-08-24T13:54:26;5.00;;;1.10;;
78224;SDS011;67498;53.650;10.090;2023-08-24T13:56:51;4.80;;;1.50;;
78224;SDS011;67498;53.650;10.090;2023-08-24T13:59:18;4.30;;;1.10;;
78224;SDS011;67498;53.650;10.090;2023-08-24T14:01:44;3.50;;;1.15;;
78224;SDS011;67498;53.650;10.090;2023-08-24T14:04:10;3.60;;;1.20;;
78224;SDS011;67498;53.650;10.090;2023-08-24T14:06:35;3.80;;;1.00;;
78224;SDS011;67498;53.650;10.090;2023-08-24T14:09:01;5.63;;;1.40;;
78224;SDS011;67498;53.650;10.090;2023-08-24T14:11:28;3.30;;;1.10;;
78224;SDS011;67498;53.650;10.090;2023-08-24T14:13:54;3.63;;;1.20;;
78224;SDS011;67498;53.650;10.090;2023-08-24T14:16:19;4.10;;;1.37;;
78224;SDS011;67498;53.650;10.090;2023-08-24T14:18:45;5.47;;;1.33;;
78224;SDS011;67498;53.650;10.090;2023-08-24T14:21:11;4.30;;;0.90;;
78224;SDS011;67498;53.650;10.090;2023-08-24T14:23:37;5.72;;;0.93;;
78224;SDS011;67498;53.650;10.090;2023-08-24T14:26:02;3.50;;;0.90;;
78224;SDS011;67498;53.650;10.090;2023-08-24T14:28:46;5.20;;;1.20;;
78224;SDS011;67498;53.650;10.090;2023-08-24T14:31:13;3.80;;;1.10;;
78224;SDS011;67498;53.650;10.090;2023-08-24T14:33:38;4.77;;;1.00;;
78224;SDS011;67498;53.650;10.090;2023-08-24T14:36:04;3.83;;;0.90;;
78224;SDS011;67498;53.650;10.090;2023-08-24T14:38:29;4.40;;;1.20;;